Date,TemperatureHighF,TemperatureAvgF,TemperatureLowF,DewpointHighF,DewpointAvgF,DewpointLowF,HumidityHigh,HumidityAvg,HumidityLow,PressureMaxIn,PressureMinIn,WindSpeedMaxMPH,WindSpeedAvgMPH,GustSpeedMaxMPH,PrecipitationSumIn
2013-1-1,15.3,2.6,-12.5,5.8,-4.8,-17.5,92,72,50,30.32,30.18,9,0,9,0.00
2013-1-2,19.8,11.4,0.3,8.8,4.8,-4.0,87,75,57,30.18,30.08,12,1,12,0.00
2013-1-10,38.7,33.6,17.0,32.3,25.8,14.6,92,75,51,30.41,29.78,12,3,12,0.19
2013-1-11,44.6,38.2,33.4,43.0,36.4,31.4,100,93,90,29.82,29.50,12,1,12,0.04
2013-1-12,46.7,27.8,15.7,41.7,21.0,7.1,93,75,65,30.01,29.50,20,3,20,0.00
2013-1-13,15.5,11.0,7.4,8.1,3.7,0.8,77,72,65,30.28,29.96,14,2,14,0.00
2013-1-14,21.7,10.4,1.2,11.4,4.3,-2.9,89,77,60,30.46,30.26,15,1,15,0.00
2013-1-15,30.3,17.4,3.2,15.1,8.7,-0.8,87,70,49,30.43,30.00,12,1,12,0.00
2013-1-16,33.2,26.1,19.6,29.2,19.0,8.8,89,74,61,30.16,29.76,15,2,15,0.00
2013-1-17,23.7,15.5,7.4,11.5,5.2,-2.0,86,64,45,30.41,30.13,16,1,16,0.00
2013-1-18,45.7,30.4,8.7,32.2,22.7,5.1,86,74,56,30.40,29.80,19,2,19,0.00
2013-1-19,45.4,31.0,8.3,32.7,22.7,-2.8,92,72,39,30.07,29.63,25,4,25,0.00
2013-1-20,13.5,7.2,3.2,2.3,-2.4,-4.8,80,65,48,30.34,30.05,19,2,19,0.00
2013-1-21,5.1,-1.7,-5.7,-1.5,-10.0,-13.1,77,67,56,30.35,30.20,17,3,17,0.00
2013-1-22,6.7,-1.1,-9.4,-3.4,-9.2,-14.9,79,68,56,30.44,30.32,13,1,13,0.00
2013-1-23,17.4,9.0,-2.1,10.4,1.1,-11.6,85,70,60,30.56,30.12,17,2,17,0.00
2013-1-24,13.1,3.6,-5.3,4.2,-5.2,-12.2,74,66,58,30.70,30.32,8,2,8,0.00
2013-1-25,22.4,15.5,7.1,15.5,8.8,0.6,84,74,60,30.35,29.96,15,2,15,0.00
2013-1-26,23.2,13.3,-4.8,13.4,3.7,-9.5,84,66,51,30.43,30.26,12,1,12,0.02
2013-1-27,32.0,27.6,22.7,29.8,21.5,12.1,92,78,63,30.31,29.80,14,3,14,0.00
2013-1-28,35.2,32.9,31.2,32.8,30.4,28.9,96,90,88,29.93,29.67,7,0,7,0.24
2013-1-29,44.9,37.0,32.4,43.3,35.1,29.1,94,92,89,29.72,29.48,11,1,11,0.46
2013-1-30,32.4,22.8,12.1,29.8,18.9,5.8,91,85,75,29.67,29.40,18,2,18,0.00
2013-1-31,12.3,5.9,-6.8,8.3,-0.5,-11.9,84,75,63,30.24,29.66,17,3,17,0.00
2013-2-1,4.7,-2.3,-15.5,-1.7,-9.5,-20.5,82,71,55,30.36,30.14,11,1,11,0.00
2013-2-2,12.3,4.9,-4.6,1.8,-1.3,-9.4,92,75,58,30.18,30.02,10,0,10,0.03
2013-2-3,18.1,12.0,2.9,9.1,5.7,-1.1,86,76,59,30.08,29.97,17,1,17,0.00
2013-2-4,18.7,11.1,-0.7,9.6,4.3,-6.5,92,74,48,30.03,29.92,11,1,11,0.01
2013-2-5,28.5,17.1,-2.6,23.2,12.2,-6.7,92,81,73,30.14,29.77,20,2,20,0.00
2013-2-6,29.3,15.0,-7.3,26.7,10.4,-12.0,92,81,72,30.22,30.04,12,1,12,0.00
2013-2-7,32.7,29.2,25.0,29.9,26.0,20.0,92,88,81,30.17,29.96,11,0,11,0.00
2013-2-8,27.2,15.9,-2.6,20.5,9.3,-7.3,88,76,57,30.39,30.16,12,0,12,0.03
2013-2-9,28.1,18.5,-3.7,23.9,14.8,-8.1,89,85,81,30.39,30.03,16,2,16,0.00
2013-2-10,41.5,33.4,27.5,39.6,30.7,23.9,93,90,85,30.04,29.30,16,3,16,0.21
2013-2-11,34.4,27.8,20.9,31.5,23.3,14.7,90,83,75,30.03,29.30,22,4,22,0.02
2013-2-12,33.2,21.2,12.1,21.8,15.1,8.9,90,78,62,30.08,29.84,14,1,14,0.02
2013-2-13,40.2,27.3,11.4,30.2,21.0,8.1,92,78,58,29.85,29.59,9,0,9,0.00
2013-2-14,34.1,30.2,18.6,31.8,23.4,7.5,92,76,56,30.09,29.54,22,2,22,0.07
2013-2-15,22.2,10.9,-1.8,8.7,2.1,-7.0,92,68,51,30.26,30.07,13,1,13,0.00
2013-2-16,17.5,5.9,-6.6,3.0,-1.8,-12.2,92,71,50,30.25,30.18,12,1,12,0.00
2013-2-17,27.7,11.6,-10.7,19.4,3.2,-15.4,92,69,53,30.23,29.84,14,2,14,0.00
2013-2-18,42.0,30.3,16.6,30.9,23.4,11.3,89,76,64,29.87,29.50,20,4,20,0.00
2013-2-19,16.5,9.4,4.2,12.2,1.2,-5.6,83,69,58,30.29,29.60,22,5,22,0.00
2013-2-20,22.1,9.8,0.5,8.9,1.1,-5.9,92,68,51,30.44,30.28,13,1,13,0.00
2013-2-21,22.6,14.9,1.9,19.8,9.9,-2.1,89,80,69,30.48,30.02,15,2,15,0.00
2013-2-22,28.7,24.4,21.1,23.6,20.1,17.6,95,84,76,30.07,29.81,17,1,17,0.14
2013-2-23,30.1,23.5,12.0,20.8,17.5,8.1,86,78,64,29.97,29.83,12,1,12,0.07
2013-2-24,37.2,20.6,4.7,22.4,13.6,0.8,89,76,51,30.15,29.96,7,0,7,0.07
2013-2-25,38.2,27.2,18.2,26.4,20.9,14.7,92,77,59,30.15,30.02,9,0,9,0.00
2013-2-26,35.4,29.4,21.3,25.8,23.3,18.6,90,78,67,30.04,29.73,20,2,20,0.00
2013-2-27,33.7,30.6,27.8,29.5,26.0,23.5,92,83,75,29.87,29.69,13,1,13,0.11
2013-2-28,32.1,29.6,26.0,26.4,22.1,16.1,84,73,64,30.16,29.87,13,1,13,0.03
2013-3-1,29.6,21.1,6.9,17.3,13.1,1.8,92,71,55,30.28,30.14,10,1,10,0.01
2013-3-2,29.7,14.3,0.5,11.4,4.5,-3.5,87,67,33,30.32,30.20,13,1,13,0.00
2013-3-3,32.0,14.1,-1.9,11.2,3.2,-6.4,92,66,25,30.21,30.09,6,0,6,0.00
2013-3-4,28.9,22.3,10.4,21.8,14.9,4.7,83,73,55,30.13,30.02,14,2,14,0.00
2013-3-5,28.6,25.7,24.3,24.3,21.7,19.9,88,85,77,30.19,29.94,10,1,10,0.04
2013-3-6,30.2,20.9,2.7,21.0,15.1,-1.5,87,78,63,30.37,30.17,12,2,12,0.11
2013-3-7,34.7,16.3,-1.8,18.7,8.7,-6.3,92,73,50,30.44,30.35,6,0,6,0.22
2013-3-8,39.7,24.4,4.0,25.2,17.0,0.1,89,74,55,30.46,30.22,17,2,17,0.02
2013-3-9,37.8,35.5,29.6,35.4,31.0,23.9,91,84,74,30.24,29.74,18,3,18,0.38
2013-3-10,37.5,35.2,32.3,35.7,32.9,29.2,93,91,89,29.81,29.65,15,1,15,0.55
2013-3-11,32.3,29.8,26.8,30.0,26.5,22.9,92,88,84,29.79,29.59,15,1,15,0.23
2013-3-12,29.0,25.0,20.5,23.4,19.6,15.2,88,80,70,30.10,29.78,14,2,14,0.10
2013-3-13,31.9,20.9,11.9,16.6,10.3,5.1,92,66,36,30.34,30.08,16,2,16,0.01
2013-3-14,35.5,22.8,10.2,27.4,18.2,6.7,92,83,72,30.32,30.03,11,1,11,0.09
2013-3-15,34.4,29.5,20.2,31.0,26.7,17.5,92,89,82,30.05,29.79,12,1,12,0.16
2013-3-16,29.4,22.6,13.2,26.7,17.4,9.8,92,81,65,30.20,29.82,12,1,12,0.04
2013-3-17,28.7,20.1,10.3,17.5,10.9,3.3,87,67,55,30.29,29.98,15,2,15,0.00
2013-3-18,31.4,20.9,11.9,27.1,16.4,7.3,90,83,70,30.00,29.58,17,2,17,0.12
2013-3-19,27.8,17.1,8.9,8.9,6.0,1.9,78,62,42,30.10,29.74,20,5,20,0.01
2013-3-20,19.7,10.6,-0.7,5.5,0.1,-7.2,81,62,51,30.13,30.07,19,3,19,0.00
2013-3-21,27.2,11.2,-5.6,10.1,2.0,-10.4,86,68,45,30.14,30.06,15,1,15,0.01
2013-3-22,35.4,18.9,1.4,17.5,8.4,-2.5,92,66,38,30.11,30.04,11,1,11,0.00
2013-3-23,38.7,27.5,11.6,22.5,16.0,6.4,89,64,41,30.15,30.05,11,0,11,0.00
2013-3-24,32.1,29.3,24.9,26.4,22.1,19.1,83,74,67,30.08,29.85,12,1,12,0.01
2013-3-25,34.4,29.4,21.1,24.4,19.9,15.3,81,68,60,30.15,29.88,17,2,17,0.00
2013-3-26,38.7,31.0,20.8,23.6,20.2,15.1,80,65,45,30.27,30.14,14,1,14,0.00
2013-3-27,41.4,32.8,22.1,24.2,21.0,15.9,80,63,40,30.33,30.27,14,1,14,0.00
2013-3-28,45.4,30.7,15.2,26.6,18.6,11.2,90,64,36,30.36,30.28,8,0,8,0.00
2013-3-29,49.7,33.2,16.9,29.1,21.1,13.7,91,65,34,30.33,30.18,8,0,8,0.00
2013-3-30,48.7,40.3,29.5,40.7,32.5,24.8,92,74,55,30.19,29.81,17,2,17,0.12
2013-3-31,39.3,34.4,28.6,36.1,27.3,14.7,93,76,49,29.98,29.74,17,2,17,0.00
2013-4-1,32.8,25.7,15.5,15.8,13.4,10.8,85,60,41,30.23,29.95,19,3,19,0.00
2013-4-2,36.6,23.6,11.5,17.6,13.2,8.1,95,67,38,30.36,30.21,14,2,14,0.00
2013-4-3,44.2,28.3,12.6,21.2,15.3,9.0,90,63,31,30.47,30.22,14,1,14,0.00
2013-4-4,51.4,40.3,26.4,37.3,26.1,18.5,80,57,44,30.24,29.98,18,2,18,0.00
2013-4-5,47.4,36.2,20.5,27.8,22.4,17.1,89,60,35,30.24,30.03,14,1,14,0.00
2013-4-6,58.1,43.9,33.8,47.1,32.5,17.2,91,65,49,30.06,29.48,18,4,18,0.23
2013-4-7,51.2,39.9,32.1,36.7,32.7,28.8,92,76,57,29.95,29.61,14,2,14,0.01
2013-4-8,56.9,42.9,36.8,46.2,36.9,31.9,91,80,66,30.00,29.68,10,1,10,0.08
2013-4-9,38.9,37.0,33.3,36.2,34.3,29.3,92,90,82,30.10,29.88,16,2,16,0.51
2013-4-10,33.7,32.4,31.1,31.3,29.5,28.4,91,89,83,30.10,29.67,21,1,21,1.75
2013-4-11,36.6,33.7,31.4,33.8,30.8,27.7,91,89,83,29.91,29.58,19,2,19,0.82
2013-4-12,34.7,32.5,30.5,31.0,28.9,27.4,92,86,80,29.79,29.55,13,1,13,0.17
2013-4-13,34.8,31.8,26.7,28.3,25.8,23.2,88,78,67,29.99,29.77,13,2,13,0.02
2013-4-14,44.7,34.3,26.5,38.9,30.9,23.3,96,87,78,29.99,29.58,21,2,21,0.45
2013-4-15,50.1,41.7,30.3,43.0,32.7,26.4,94,73,47,29.98,29.58,25,2,25,0.24
2013-4-16,50.4,36.8,25.3,32.1,27.9,22.5,91,72,44,30.30,29.96,15,1,15,0.00
2013-4-17,39.7,36.3,29.0,36.2,32.2,25.4,92,85,72,30.31,29.72,24,2,24,0.50
2013-4-18,42.5,39.7,34.9,40.4,37.3,30.1,95,91,88,29.80,29.28,15,1,15,0.52
2013-4-19,36.0,32.1,28.2,31.8,26.3,20.3,92,79,63,29.98,29.31,26,5,26,0.07
2013-4-20,44.7,31.1,17.5,23.9,18.3,12.1,91,63,29,30.37,29.94,14,1,14,0.01
2013-4-21,50.9,39.3,24.6,38.8,31.0,19.9,90,73,55,30.43,30.17,24,4,24,0.11
2013-4-22,52.6,47.1,43.5,46.8,42.3,38.3,92,84,68,30.19,29.92,11,1,14,0.21
2013-4-23,51.6,37.8,29.6,46.1,32.1,25.0,91,80,66,30.03,29.87,16,2,16,0.04
2013-4-24,51.7,38.4,23.0,35.0,26.3,19.9,92,65,39,30.06,29.93,17,2,17,0.04
2013-4-25,49.4,38.4,28.3,35.7,30.1,24.0,89,74,43,30.24,29.96,13,2,13,0.02
2013-4-26,69.3,53.6,28.4,47.0,37.5,24.6,87,56,38,30.22,30.06,23,3,23,0.00
2013-4-27,67.2,53.6,39.8,49.7,43.5,35.6,93,71,49,30.16,29.96,17,2,17,0.00
2013-4-28,72.1,53.5,33.7,48.8,41.1,31.4,94,67,36,29.97,29.72,18,1,18,0.00
2013-4-29,69.7,58.0,45.5,56.3,50.3,41.3,92,76,59,29.78,29.58,18,1,18,0.29
2013-4-30,83.5,69.9,51.3,58.8,55.0,42.9,93,62,38,29.87,29.56,20,3,20,0.16
2013-5-1,67.5,54.7,40.7,49.0,42.5,33.1,89,65,46,30.26,29.86,18,2,18,0.00
2013-5-2,40.6,36.7,32.0,34.7,32.1,28.7,88,83,76,30.36,30.24,16,1,16,0.11
2013-5-3,41.9,36.0,31.5,39.8,33.2,28.6,96,90,88,30.27,30.01,12,1,12,0.91
2013-5-4,69.8,53.9,41.7,56.1,47.2,39.8,93,79,54,30.06,29.98,11,1,11,0.09
2013-5-5,74.3,56.4,40.6,50.8,45.2,38.2,94,70,36,30.05,29.95,10,1,10,0.00
2013-5-6,75.7,57.8,39.2,50.1,42.8,36.8,98,64,27,30.06,29.94,13,1,13,0.00
2013-5-7,78.3,59.3,39.6,53.5,42.8,36.5,93,61,23,30.02,29.92,12,1,12,0.00
2013-5-8,79.7,62.1,41.1,54.5,45.0,37.5,91,59,28,29.99,29.89,10,1,10,0.00
2013-5-9,63.8,56.6,49.6,56.4,52.4,44.2,92,86,62,29.92,29.83,13,1,13,0.95
2013-5-10,59.9,47.7,39.8,47.0,42.2,37.3,92,82,59,29.99,29.89,10,1,13,0.07
2013-5-11,51.9,45.1,39.1,46.4,32.8,23.3,94,64,38,30.07,29.78,31,4,31,0.00
2013-5-12,54.0,42.5,31.9,29.0,25.1,21.4,79,53,30,30.13,30.05,19,3,19,0.00
2013-5-13,64.8,48.8,25.5,38.9,30.5,22.4,91,54,26,30.16,29.76,15,2,15,0.00
2013-5-14,88.5,71.0,47.2,58.7,50.1,38.9,84,51,28,29.80,29.44,19,3,19,0.00
2013-5-15,73.7,60.6,46.3,53.5,45.1,40.2,88,61,32,29.83,29.52,15,2,15,0.00
2013-5-16,83.5,65.4,43.3,60.6,47.1,38.7,93,57,27,29.91,29.80,12,1,12,0.00
2013-5-17,61.9,54.7,46.8,54.5,46.5,34.2,92,76,41,30.03,29.89,15,2,15,0.94
2013-5-18,78.3,63.0,46.5,64.7,55.3,43.7,92,77,59,30.02,29.84,11,1,11,0.00
2013-5-19,83.5,69.2,53.6,66.5,59.7,51.4,94,74,48,29.86,29.56,22,2,22,0.01
2013-5-20,79.3,68.2,60.4,62.7,59.4,56.7,92,76,47,29.72,29.50,24,3,24,0.53
2013-5-21,70.3,62.3,52.9,61.6,56.8,49.2,94,83,62,29.64,29.50,16,1,16,0.19
2013-5-22,61.2,57.2,52.1,57.8,54.5,48.8,94,91,85,29.81,29.59,11,1,11,0.02
2013-5-23,62.8,51.9,38.6,49.6,42.4,32.7,92,73,34,30.29,29.79,17,2,17,0.65
2013-5-24,64.3,48.9,32.6,47.1,38.5,30.2,93,71,38,30.43,30.25,10,1,10,0.01
2013-5-25,57.7,51.3,46.1,45.9,43.7,37.6,91,77,49,30.33,30.25,13,1,13,0.13
2013-5-26,60.4,52.5,44.3,51.2,44.3,36.0,91,75,47,30.27,30.08,12,1,12,0.12
2013-5-27,54.3,52.7,50.3,51.7,48.0,42.3,93,84,69,30.11,29.83,12,2,12,0.14
2013-5-28,64.3,56.8,50.3,59.8,54.1,48.1,93,91,84,29.84,29.66,7,1,7,0.02
2013-5-29,81.5,67.1,59.0,67.3,61.1,56.9,94,82,59,29.83,29.69,15,2,15,0.14
2013-5-30,79.4,68.8,57.7,69.4,63.5,55.4,94,84,57,29.77,29.57,20,3,20,0.21
2013-5-31,78.4,67.7,58.7,64.1,59.5,54.1,90,76,51,29.67,29.57,21,3,21,0.10
2013-6-1,74.0,62.7,50.6,62.1,54.3,47.9,93,75,48,29.74,29.56,15,2,15,0.03
2013-6-2,62.3,51.6,41.3,52.2,42.4,37.5,91,72,48,30.02,29.71,16,2,16,0.02
2013-6-3,68.3,53.7,36.4,52.8,43.1,34.3,94,71,40,30.07,29.98,10,1,10,0.01
2013-6-4,58.0,53.2,49.6,54.8,50.6,46.8,95,91,88,30.13,30.03,6,0,6,0.01
2013-6-5,56.6,53.2,49.1,54.3,50.8,46.5,95,92,90,30.10,29.90,10,1,10,0.01
2013-6-6,56.8,53.9,51.5,53.8,51.3,49.3,93,91,87,29.95,29.87,7,0,7,0.04
2013-6-7,68.8,56.4,47.9,55.3,49.3,45.8,93,79,51,29.98,29.88,9,0,9,0.09
2013-6-8,69.0,59.5,47.9,57.7,51.8,45.7,96,77,53,29.94,29.88,12,1,12,0.06
2013-6-9,73.9,61.8,53.6,62.4,56.4,49.6,93,83,63,29.93,29.75,18,1,18,0.03
2013-6-10,77.8,65.4,55.1,67.3,59.2,50.7,95,82,58,29.82,29.73,11,1,11,0.07
2013-6-11,80.3,66.4,49.9,68.0,60.1,47.9,94,82,61,29.86,29.75,10,0,10,0.04
2013-6-12,74.3,66.7,60.3,67.5,63.1,56.1,93,88,76,29.85,29.57,15,1,15,0.01
2013-6-13,76.8,65.1,53.8,60.6,56.2,50.0,94,75,47,30.03,29.73,14,1,14,0.02
2013-6-14,75.7,63.0,49.1,62.6,54.8,46.9,94,77,50,30.10,29.90,11,1,11,0.01
2013-6-15,77.9,66.8,59.0,69.9,62.1,55.3,93,85,68,29.98,29.75,11,1,11,0.01
2013-6-16,81.5,67.2,53.2,64.8,56.4,50.8,95,73,37,29.86,29.81,14,1,14,0.02
2013-6-17,82.5,68.0,52.2,63.1,56.2,50.0,94,70,38,29.92,29.82,13,1,13,0.02
2013-6-18,73.2,62.2,49.2,57.2,52.0,45.9,90,71,48,30.06,29.91,11,1,11,0.02
2013-6-19,78.3,61.7,43.1,61.8,51.2,40.8,94,72,44,30.11,29.99,10,1,10,0.00
2013-6-20,83.8,68.6,51.9,66.9,58.2,49.7,94,72,44,30.06,29.94,14,2,14,0.01
2013-6-21,78.8,69.1,61.3,67.8,63.4,58.7,93,83,62,29.97,29.77,18,1,18,0.02
2013-6-22,81.8,70.4,63.5,72.4,65.6,61.1,94,85,64,30.05,29.81,18,2,18,0.03
2013-6-23,81.5,70.8,61.8,71.6,64.8,59.3,93,82,60,29.98,29.72,17,2,17,0.05
2013-6-24,77.7,69.1,61.7,69.3,64.5,59.6,94,86,72,29.92,29.77,13,1,13,0.07
2013-6-25,81.5,70.7,64.3,73.6,66.5,62.2,93,87,70,29.84,29.69,21,1,21,0.81
2013-6-26,83.2,73.2,64.9,73.1,67.9,62.5,95,84,63,29.72,29.63,11,1,11,0.00
2013-6-27,85.2,71.9,59.3,71.0,63.4,56.4,95,77,46,29.75,29.66,18,1,18,0.00
2013-6-28,73.7,64.8,55.0,66.0,59.7,52.7,94,84,61,29.70,29.61,17,1,17,0.35
2013-6-29,70.8,51.6,60.4,99.9,67.3,54.0,93,66,69,29.85,29.61,10,0,10,0.19
2013-6-30,3276.7,48.1,53.7,99.9,67.9,49.8,91,46,39,30.03,29.83,255,1,255,0.00
2013-7-1,80.3,52.3,52.6,99.9,66.1,50.0,94,47,39,30.10,30.02,5,1,9,0.00
2013-7-2,76.0,53.3,49.7,99.9,61.8,47.1,94,63,50,30.07,30.00,11,0,11,0.00
2013-7-3,3276.7,37.9,49.5,99.9,73.0,47.0,94,44,51,30.05,29.96,255,0,255,0.00
2013-7-4,3276.7,57.6,50.3,99.9,65.2,48.0,94,58,46,30.02,29.92,255,1,255,0.00
2013-7-5,82.8,69.2,52.9,66.4,59.5,50.9,94,74,47,29.99,29.89,16,1,16,0.00
2013-7-6,84.4,70.5,58.1,67.6,62.0,55.2,94,76,52,29.94,29.85,10,1,10,0.00
2013-7-7,3276.7,60.0,62.2,99.9,74.6,59.5,92,61,58,29.89,29.81,255,1,255,0.00
2013-7-8,88.4,63.4,67.2,99.9,75.7,63.3,93,65,62,29.91,29.79,10,1,10,0.00
2013-7-9,84.3,58.2,64.0,99.9,76.1,61.6,94,65,69,29.91,29.73,16,1,16,0.17
2013-7-10,77.3,51.4,55.3,99.9,68.7,51.1,92,51,49,30.00,29.77,15,1,15,0.00
2013-7-11,81.4,65.1,51.4,65.8,57.1,49.2,94,78,46,30.07,29.98,7,0,7,0.00
2013-7-12,80.0,49.9,57.0,99.9,70.9,54.3,94,49,49,30.09,29.99,9,1,14,0.00
2013-7-13,79.7,48.7,56.0,99.9,72.4,53.7,93,54,53,30.10,29.99,12,1,12,0.00
2013-7-14,3276.7,51.0,58.4,99.9,76.7,56.1,92,47,51,30.17,30.09,255,1,255,0.00
2013-7-15,3276.7,51.5,62.0,99.9,80.4,59.3,94,50,62,30.20,30.12,255,0,255,0.00
2013-7-16,89.5,61.3,66.7,99.9,78.2,64.3,94,58,57,30.19,30.13,11,1,11,0.00
2013-7-17,3276.7,59.5,67.9,99.9,80.0,64.8,94,52,49,30.20,30.08,255,0,255,0.00
2013-7-18,91.0,75.9,65.8,99.9,71.2,63.7,94,71,54,30.08,29.77,13,1,13,0.00
2013-7-19,3276.7,69.2,60.8,99.9,70.5,57.5,91,62,44,29.79,29.68,255,1,255,0.00
2013-7-20,3276.7,47.2,60.1,99.9,76.6,57.5,91,46,53,29.89,29.78,255,1,255,0.00
2013-7-21,3276.7,44.7,57.5,99.9,73.2,55.1,93,59,69,29.90,29.82,255,0,255,1.26
2013-7-22,3276.7,54.4,57.3,99.9,76.1,55.1,94,56,65,29.84,29.59,255,1,255,0.01
2013-7-23,3276.7,39.8,51.6,99.9,71.8,48.8,91,42,54,29.98,29.68,255,1,255,0.00
2013-7-24,3276.7,45.2,51.3,99.9,68.0,48.8,94,48,45,30.04,29.96,255,0,255,0.00
2013-7-25,76.0,57.2,49.2,99.9,61.9,47.0,94,78,67,30.01,29.91,12,1,12,0.48
2013-7-26,74.5,64.2,55.1,99.9,59.0,50.0,94,80,53,29.92,29.81,17,1,17,0.05
2013-7-27,3276.7,36.3,50.2,99.9,64.7,43.5,89,54,63,29.93,29.84,255,1,255,0.04
2013-7-28,3276.7,40.1,51.0,99.9,66.8,46.1,92,54,64,30.01,29.83,255,1,255,0.00
2013-7-29,3276.7,40.5,53.7,99.9,72.6,51.1,92,45,55,30.10,30.00,255,0,255,0.00
2013-7-30,3276.7,44.2,53.7,99.9,74.8,51.1,91,48,59,30.11,30.00,255,1,255,0.00
2013-7-31,3276.7,0.6,64.3,99.9,99.5,61.0,89,1,89,30.02,29.91,255,0,255,0.00
2013-8-1,3276.7,0.0,200.0,99.9,99.9,99.9,0,0,100,29.99,29.83,255,0,255,0.00
2013-8-2,3276.7,0.0,200.0,99.9,99.9,99.9,0,0,100,29.98,29.80,255,0,255,0.00
2013-8-3,3276.7,0.0,200.0,99.9,99.9,99.9,0,0,100,30.14,29.97,255,0,255,0.00
2013-8-4,3276.7,0.0,200.0,99.9,99.9,99.9,0,0,100,30.20,30.05,255,0,255,0.00
2013-8-5,3276.7,0.0,200.0,99.9,99.9,99.9,0,0,100,30.06,29.81,255,0,255,0.00
2013-8-6,3276.7,0.0,200.0,99.9,99.9,99.9,0,0,100,29.83,29.72,255,0,255,0.00
2013-8-7,3276.7,0.0,200.0,99.9,99.9,99.9,0,0,100,29.98,29.72,255,0,255,0.00
2013-8-8,3276.7,0.0,200.0,99.9,99.9,99.9,0,0,100,30.01,29.95,255,0,255,0.00
2013-8-9,3276.7,0.0,200.0,99.9,99.9,99.9,0,0,100,30.07,29.94,255,0,255,0.00
2013-8-10,3276.7,0.0,200.0,99.9,99.9,99.9,0,0,100,30.14,30.06,255,0,255,0.00
2013-8-11,3276.7,0.0,200.0,99.9,99.9,99.9,0,0,100,30.10,29.98,255,0,255,0.00
2013-8-12,3276.7,0.0,200.0,99.9,99.9,99.9,0,0,100,30.00,29.90,255,0,255,0.00
2013-8-13,3276.7,0.0,200.0,99.9,99.9,99.9,0,0,100,30.15,29.99,255,0,255,0.00
2013-8-14,3276.7,0.0,200.0,99.9,99.9,99.9,0,0,100,30.18,30.08,255,0,255,0.00
2013-8-15,3276.7,0.0,200.0,99.9,99.9,99.9,0,0,100,30.12,30.05,255,0,255,0.00
2013-8-16,3276.7,0.0,200.0,99.9,99.9,99.9,0,0,100,30.17,30.10,255,0,255,0.00
2013-8-17,3276.7,0.0,200.0,99.9,99.9,99.9,0,0,100,30.21,30.11,255,0,255,0.00
2013-8-18,3276.7,0.0,200.0,99.9,99.9,99.9,0,0,100,30.18,30.05,255,0,255,0.00
2013-8-19,3276.7,0.0,200.0,99.9,99.9,99.9,0,0,100,30.06,29.97,255,0,255,0.00
2013-8-20,3276.7,0.0,200.0,99.9,99.9,99.9,0,0,100,30.01,29.92,255,0,255,0.00
2013-8-21,3276.7,0.0,200.0,99.9,99.9,99.9,0,0,100,29.98,29.88,255,0,255,0.00
2013-8-22,3276.7,0.0,200.0,99.9,99.9,99.9,0,0,100,30.11,29.95,255,0,255,0.00
2013-8-23,3276.7,0.0,200.0,99.9,99.9,99.9,0,0,100,30.15,30.08,255,0,255,0.00
2013-8-24,3276.7,0.0,200.0,99.9,99.9,99.9,0,0,100,30.19,30.08,255,0,255,0.00
2013-8-25,3276.7,0.0,200.0,99.9,99.9,99.9,0,0,100,30.13,30.02,255,0,255,0.00
2013-8-26,3276.7,0.0,200.0,99.9,99.9,99.9,0,0,100,30.08,29.90,255,0,255,0.00
2013-8-27,3276.7,0.0,200.0,99.9,99.9,99.9,0,0,100,29.92,29.78,255,0,255,0.00